Time;durP1;ratioP1;P1;durP2;ratioP2;P2;SDS_P1;SDS_P2;PMS_P1;PMS_P2;Temp;Humidity;BMP_temperature;BMP_pressure;BME280_temperature;BME280_humidity;BME280_pressure;Samples;Min_cycle;Max_cycle;Signal;HPM_P1;HPM_P2
2023/07/27 00:01:03;;;;;;;;;;;;;;;22.73;50.00;100935.53;5046551;28;20417;-72
2023/07/27 00:03:28;;;;;;;;;;;;;;;22.72;49.81;100921.13;5068743;28;19912;-72
2023/07/27 00:05:53;;;;;;;;;;;;;;;22.72;49.68;100926.53;5046868;28;19940;-72
2023/07/27 00:08:18;;;;;;;;;;;;;;;22.73;49.61;100921.97;5051032;28;19981;-72
2023/07/27 00:10:44;;;;;;;;;;;;;;;22.71;49.81;100923.00;5085050;28;19916;-72
2023/07/27 00:13:09;;;;;;;;;;;;;;;22.71;49.61;100920.28;5064981;28;19916;-71
2023/07/27 00:15:34;;;;;;;;;;;;;;;22.71;49.77;100916.75;5050330;28;19916;-72
2023/07/27 00:17:59;;;;;;;;;;;;;;;22.70;49.79;100909.66;5053135;28;19924;-71
2023/07/27 00:20:24;;;;;;;;;;;;;;;22.70;49.91;100913.19;5051730;28;19929;-72
2023/07/27 00:22:50;;;;;;;;;;;;;;;22.70;49.76;100906.94;5049233;28;19917;-72
2023/07/27 00:25:15;;;;;;;;;;;;;;;22.69;49.58;100900.69;5084186;28;19948;-71
2023/07/27 00:27:40;;;;;;;;;;;;;;;22.68;49.68;100898.16;5046252;28;19957;-71
2023/07/27 00:30:06;;;;;;;;;;;;;;;22.67;49.64;100891.88;5051641;28;19917;-72
2023/07/27 00:32:31;;;;;;;;;;;;;;;22.67;49.44;100891.06;5048566;28;20011;-71
2023/07/27 00:34:56;;;;;;;;;;;;;;;22.66;49.71;100890.22;5048487;28;19924;-71
2023/07/27 00:37:21;;;;;;;;;;;;;;;22.66;49.42;100886.66;5052210;28;19920;-72
2023/07/27 00:39:46;;;;;;;;;;;;;;;22.66;49.58;100886.66;5050785;28;19913;-71
2023/07/27 00:42:12;;;;;;;;;;;;;;;22.65;49.33;100885.84;5051154;28;19913;-71
2023/07/27 00:44:37;;;;;;;;;;;;;;;22.64;49.71;100877.88;5051837;28;19956;-72
2023/07/27 00:47:02;;;;;;;;;;;;;;;22.63;49.42;100870.78;5052373;28;19958;-72
2023/07/27 00:49:29;;;;;;;;;;;;;;;22.63;49.55;100868.09;5081797;28;19997;-71
2023/07/27 00:51:54;;;;;;;;;;;;;;;22.62;49.59;100864.53;5068212;28;19917;-72
2023/07/27 00:54:19;;;;;;;;;;;;;;;22.62;49.34;100855.56;5052563;28;19925;-72
2023/07/27 00:56:44;;;;;;;;;;;;;;;22.61;49.68;100857.44;5051894;28;19913;-72
2023/07/27 00:59:10;;;;;;;;;;;;;;;22.60;49.32;100855.78;5087097;28;19923;-72
2023/07/27 01:01:35;;;;;;;;;;;;;;;22.61;49.50;100859.31;5083919;28;19924;-72
2023/07/27 01:04:00;;;;;;;;;;;;;;;22.60;49.53;100855.78;5055827;28;19923;-72
2023/07/27 01:06:25;;;;;;;;;;;;;;;22.60;49.50;100854.91;5051276;28;20382;-71
2023/07/27 01:08:53;;;;;;;;;;;;;;;22.59;49.43;100854.06;5054168;28;20386;-72
2023/07/27 01:11:19;;;;;;;;;;;;;;;22.58;49.61;100855.13;5052024;28;19952;-72
2023/07/27 01:13:51;;;;;;;;;;;;;;;22.59;49.45;100842.41;5052274;28;19913;-71
2023/07/27 01:16:22;;;;;;;;;;;;;;;22.58;49.27;100843.44;5085090;28;19932;-72
2023/07/27 01:19:06;;;;;;;;;;;;;;;22.57;49.39;100839.91;5053463;28;20309;-72
2023/07/27 01:21:32;;;;;;;;;;;;;;;22.57;49.52;100836.34;5051681;28;19917;-72
2023/07/27 01:23:57;;;;;;;;;;;;;;;22.56;49.39;100830.09;5052122;28;19913;-72
2023/07/27 01:26:28;;;;;;;;;;;;;;;22.55;49.20;100825.69;5053210;28;19923;-72
2023/07/27 01:29:06;;;;;;;;;;;;;;;22.56;49.44;100831.97;5050784;28;20358;-72
2023/07/27 01:31:32;;;;;;;;;;;;;;;22.55;49.55;100836.53;5050312;28;19924;-72
2023/07/27 01:34:02;;;;;;;;;;;;;;;22.56;49.35;100837.41;5049222;28;19920;-72
2023/07/27 01:36:29;;;;;;;;;;;;;;;22.55;49.20;100833.81;5053323;28;20008;-72
2023/07/27 01:38:55;;;;;;;;;;;;;;;22.55;49.22;100832.97;5080578;28;19971;-71
2023/07/27 01:41:22;;;;;;;;;;;;;;;22.53;49.35;100841.31;5036716;28;19913;-72
2023/07/27 01:43:47;;;;;;;;;;;;;;;22.53;49.35;100830.47;5082758;28;19916;-72
2023/07/27 01:46:12;;;;;;;;;;;;;;;22.51;49.41;100832.53;5081771;28;20433;-72
2023/07/27 01:48:39;;;;;;;;;;;;;;;22.52;49.21;100831.53;5051556;28;19984;-71
2023/07/27 01:51:04;;;;;;;;;;;;;;;22.52;49.44;100828.81;5085649;28;19913;-72
2023/07/27 01:53:30;;;;;;;;;;;;;;;22.51;49.34;100823.56;5053686;28;19913;-72
2023/07/27 01:55:55;;;;;;;;;;;;;;;22.50;49.35;100825.44;5049488;28;19940;-72
2023/07/27 01:58:20;;;;;;;;;;;;;;;22.48;49.39;100818.56;5069179;28;19916;-72
2023/07/27 02:00:46;;;;;;;;;;;;;;;22.46;49.35;100819.56;5050406;28;19925;-71
2023/07/27 02:03:11;;;;;;;;;;;;;;;22.45;49.42;100817.06;5053926;28;19924;-71
2023/07/27 02:05:36;;;;;;;;;;;;;;;22.45;49.09;100820.59;5054150;28;20386;-72
2023/07/27 02:08:02;;;;;;;;;;;;;;;22.45;49.39;100823.31;5052741;28;20375;-71
2023/07/27 02:10:27;;;;;;;;;;;;;;;22.44;49.41;100827.06;5053608;28;19935;-72
2023/07/27 02:12:56;;;;;;;;;;;;;;;22.43;49.49;100819.16;5053209;28;19936;-72
2023/07/27 02:15:32;;;;;;;;;;;;;;;22.42;49.45;100814.75;5052852;28;20573;-71
2023/07/27 02:18:06;;;;;;;;;;;;;;;22.42;49.58;100809.31;5050136;28;19943;-72
2023/07/27 02:20:33;;;;;;;;;;;;;;;22.41;49.33;100805.78;5049239;28;19980;-71
2023/07/27 02:22:59;;;;;;;;;;;;;;;22.40;49.50;100804.09;5065855;28;19932;-72
2023/07/27 02:25:24;;;;;;;;;;;;;;;22.39;49.23;100807.03;5051123;28;19939;-71
2023/07/27 02:27:49;;;;;;;;;;;;;;;22.39;49.36;100796.19;5083239;28;19913;-72
2023/07/27 02:30:15;;;;;;;;;;;;;;;22.38;49.43;100792.59;5052364;28;19920;-71
2023/07/27 02:32:40;;;;;;;;;;;;;;;22.38;49.44;100798.03;5055531;28;19919;-71
2023/07/27 02:35:05;;;;;;;;;;;;;;;22.38;49.63;100802.59;5051284;28;20409;-71
2023/07/27 02:37:31;;;;;;;;;;;;;;;22.36;49.53;100788.44;5084548;28;19913;-72
2023/07/27 02:39:56;;;;;;;;;;;;;;;22.35;49.63;100790.31;5053248;28;19916;-72
2023/07/27 02:42:21;;;;;;;;;;;;;;;22.36;49.50;100785.72;5053331;28;19913;-72
2023/07/27 02:44:46;;;;;;;;;;;;;;;22.34;49.62;100787.78;5050942;28;19975;-72
2023/07/27 02:47:12;;;;;;;;;;;;;;;22.34;49.70;100783.19;5054604;28;19924;-72
2023/07/27 02:49:37;;;;;;;;;;;;;;;22.34;49.70;100776.94;5051331;28;19921;-72
2023/07/27 02:52:02;;;;;;;;;;;;;;;22.33;49.47;100767.97;5052525;28;19974;-72
2023/07/27 02:54:27;;;;;;;;;;;;;;;22.32;49.77;100773.59;5050177;28;20452;-71
2023/07/27 02:56:53;;;;;;;;;;;;;;;22.32;49.74;100769.03;5049908;28;19913;-72
2023/07/27 02:59:18;;;;;;;;;;;;;;;22.32;49.35;100762.78;5053698;28;19912;-72
2023/07/27 03:01:43;;;;;;;;;;;;;;;22.32;49.48;100760.06;5052162;28;19935;-72
2023/07/27 03:04:08;;;;;;;;;;;;;;;22.31;49.62;100753.81;5052603;28;19935;-71
2023/07/27 03:06:35;;;;;;;;;;;;;;;22.31;49.60;100753.81;5052113;28;19923;-72
2023/07/27 03:09:00;;;;;;;;;;;;;;;22.30;49.78;100746.72;5051700;28;19913;-71
2023/07/27 03:11:26;;;;;;;;;;;;;;;22.30;49.65;100744.00;5051539;28;20886;-72
2023/07/27 03:13:52;;;;;;;;;;;;;;;22.29;49.66;100742.31;5051134;28;20473;-72
2023/07/27 03:16:18;;;;;;;;;;;;;;;22.28;49.81;100735.22;5052036;28;19928;-72
2023/07/27 03:18:43;;;;;;;;;;;;;;;22.28;49.67;100729.81;5048992;28;19913;-72
2023/07/27 03:21:10;;;;;;;;;;;;;;;22.29;49.57;100730.66;5051962;28;19935;-72
2023/07/27 03:23:35;;;;;;;;;;;;;;;22.28;49.45;100718.16;5044479;28;20374;-72
2023/07/27 03:26:01;;;;;;;;;;;;;;;22.28;49.83;100724.41;5052606;28;19935;-71
2023/07/27 03:28:26;;;;;;;;;;;;;;;22.27;49.76;100720.03;5049956;28;19921;-72
2023/07/27 03:30:51;;;;;;;;;;;;;;;22.26;49.49;100715.66;5051427;28;19948;-72
2023/07/27 03:33:16;;;;;;;;;;;;;;;22.26;49.80;100710.22;5051901;28;19913;-72
2023/07/27 03:35:42;;;;;;;;;;;;;;;22.26;49.68;100704.81;5050607;28;20334;-71
2023/07/27 03:38:07;;;;;;;;;;;;;;;22.25;49.56;100700.41;5053201;28;19935;-71
2023/07/27 03:40:32;;;;;;;;;;;;;;;22.26;49.61;100693.13;5053090;28;19913;-72
2023/07/27 03:42:57;;;;;;;;;;;;;;;22.26;49.89;100693.97;5050136;28;19940;-72
2023/07/27 03:45:23;;;;;;;;;;;;;;;22.25;49.56;100689.56;5049650;28;19917;-72
2023/07/27 03:47:48;;;;;;;;;;;;;;;22.24;49.94;100681.66;5053307;28;19923;-72
2023/07/27 03:50:13;;;;;;;;;;;;;;;22.25;49.88;100683.31;5047593;28;19939;-72
2023/07/27 03:52:38;;;;;;;;;;;;;;;22.24;49.56;100676.25;5067947;28;19928;-72
2023/07/27 03:55:04;;;;;;;;;;;;;;;22.24;49.69;100673.53;5061121;28;19917;-72
2023/07/27 03:57:29;;;;;;;;;;;;;;;22.24;49.88;100662.69;5082401;28;19917;-72
2023/07/27 03:59:55;;;;;;;;;;;;;;;22.23;49.75;100659.16;5067690;28;19921;-71
2023/07/27 04:02:20;;;;;;;;;;;;;;;22.21;49.68;100648.50;5050989;28;19917;-71
2023/07/27 04:04:47;;;;;;;;;;;;;;;22.22;49.78;100646.66;5050372;28;19917;-71
2023/07/27 04:07:12;;;;;;;;;;;;;;;22.23;49.69;100642.06;5051623;28;20358;-71
2023/07/27 04:09:38;;;;;;;;;;;;;;;22.21;49.71;100639.53;5034315;28;19936;-72
2023/07/27 04:12:03;;;;;;;;;;;;;;;22.20;49.54;100633.28;5049609;28;19916;-71
2023/07/27 04:14:28;;;;;;;;;;;;;;;22.20;49.60;100627.88;5049599;28;20347;-71
2023/07/27 04:16:53;;;;;;;;;;;;;;;22.20;49.80;100624.34;5048083;28;19920;-71
2023/07/27 04:19:18;;;;;;;;;;;;;;;22.20;49.68;100618.91;5049268;28;19921;-70
2023/07/27 04:21:44;;;;;;;;;;;;;;;22.19;49.93;100609.97;5049837;28;20869;-70
2023/07/27 04:24:09;;;;;;;;;;;;;;;22.20;49.90;100605.38;5047652;28;19917;-70
2023/07/27 04:26:34;;;;;;;;;;;;;;;22.19;49.60;100609.97;5033591;28;19928;-70
2023/07/27 04:28:59;;;;;;;;;;;;;;;22.19;49.62;100601.00;5048894;28;19928;-71
2023/07/27 04:31:24;;;;;;;;;;;;;;;22.19;49.71;100593.72;5052833;28;19912;-70
2023/07/27 04:33:49;;;;;;;;;;;;;;;22.20;49.85;100589.13;5052349;28;19914;-71
2023/07/27 04:36:15;;;;;;;;;;;;;;;22.19;50.03;100582.88;5056616;28;19921;-70
2023/07/27 04:38:40;;;;;;;;;;;;;;;22.20;50.12;100583.72;5053588;28;19913;-71
2023/07/27 04:41:06;;;;;;;;;;;;;;;22.20;49.87;100581.84;5070126;28;19917;-69
2023/07/27 04:43:31;;;;;;;;;;;;;;;22.20;49.91;100567.47;5054648;28;19913;-76
2023/07/27 04:45:57;;;;;;;;;;;;;;;22.20;50.14;100576.44;5050465;28;19913;-72
2023/07/27 04:48:22;;;;;;;;;;;;;;;22.20;50.28;100568.31;5056139;28;19920;-73
2023/07/27 04:50:47;;;;;;;;;;;;;;;22.20;50.24;100565.59;5049034;28;19917;-72
2023/07/27 04:53:12;;;;;;;;;;;;;;;22.20;50.27;100562.06;5054334;28;19918;-72
2023/07/27 04:55:37;;;;;;;;;;;;;;;22.20;50.50;100559.34;5054051;28;19921;-72
2023/07/27 04:58:03;;;;;;;;;;;;;;;22.20;50.59;100551.22;5053154;28;19951;-72
2023/07/27 05:00:28;;;;;;;;;;;;;;;22.20;50.47;100548.50;5053371;28;19920;-72
2023/07/27 05:02:53;;;;;;;;;;;;;;;22.19;50.38;100536.84;5081747;28;19939;-73
2023/07/27 05:05:18;;;;;;;;;;;;;;;22.19;50.72;100528.72;5054900;28;19940;-73
2023/07/27 05:07:44;;;;;;;;;;;;;;;22.18;50.63;100518.94;5083572;28;19920;-72
2023/07/27 05:10:09;;;;;;;;;;;;;;;22.19;50.62;100519.78;5055968;28;19935;-73
2023/07/27 05:12:34;;;;;;;;;;;;;;;22.19;50.64;100511.66;5050630;28;19913;-73
2023/07/27 05:15:00;;;;;;;;;;;;;;;22.19;50.91;100514.34;5054903;28;19960;-72
2023/07/27 05:17:25;;;;;;;;;;;;;;;22.19;50.93;100511.66;5050613;28;19939;-73
2023/07/27 05:19:53;;;;;;;;;;;;;;;22.17;50.89;100503.72;5086140;28;19921;-73
2023/07/27 05:22:18;;;;;;;;;;;;;;;22.18;51.11;100507.28;5051381;28;19913;-75
2023/07/27 05:24:43;;;;;;;;;;;;;;;22.17;51.01;100495.59;5051572;28;20290;-71
2023/07/27 05:27:08;;;;;;;;;;;;;;;22.18;51.02;100493.72;5052801;28;20358;-72
2023/07/27 05:29:33;;;;;;;;;;;;;;;22.17;51.13;100481.22;5065291;28;20646;-74
2023/07/27 05:31:59;;;;;;;;;;;;;;;22.17;50.92;100484.78;5053285;28;19917;-75
2023/07/27 05:34:24;;;;;;;;;;;;;;;22.17;51.13;100486.63;5051795;28;19920;-75
2023/07/27 05:36:49;;;;;;;;;;;;;;;22.17;51.06;100481.22;5056851;28;19988;-74
2023/07/27 05:39:14;;;;;;;;;;;;;;;22.17;51.05;100479.38;5048967;28;19981;-75
2023/07/27 05:41:39;;;;;;;;;;;;;;;22.17;51.18;100478.50;5052412;28;19973;-74
2023/07/27 05:44:05;;;;;;;;;;;;;;;22.16;51.22;100472.25;5050792;28;19913;-75
2023/07/27 05:46:30;;;;;;;;;;;;;;;22.16;51.44;100477.66;5051721;28;19984;-75
2023/07/27 05:48:55;;;;;;;;;;;;;;;22.16;51.50;100480.38;5054813;28;19967;-74
2023/07/27 05:51:20;;;;;;;;;;;;;;;22.16;51.25;100474.13;5049900;28;19977;-75
2023/07/27 05:53:46;;;;;;;;;;;;;;;22.15;51.44;100481.41;5055497;28;19917;-75
2023/07/27 05:56:11;;;;;;;;;;;;;;;22.16;51.39;100480.38;5054049;28;19927;-75
2023/07/27 05:58:36;;;;;;;;;;;;;;;22.15;51.21;100469.75;5052352;28;19925;-74
2023/07/27 06:01:03;;;;;;;;;;;;;;;22.16;51.21;100474.13;5085043;28;19917;-75
2023/07/27 06:03:28;;;;;;;;;;;;;;;22.15;51.44;100475.16;5084533;28;19944;-75
2023/07/27 06:05:54;;;;;;;;;;;;;;;22.16;51.43;100471.41;5049949;28;19913;-75
2023/07/27 06:08:19;;;;;;;;;;;;;;;22.15;51.50;100470.59;5052659;28;19913;-75
2023/07/27 06:10:44;;;;;;;;;;;;;;;22.14;51.26;100468.94;5052290;28;19917;-75
2023/07/27 06:13:09;;;;;;;;;;;;;;;22.14;51.34;100455.38;5050085;28;19913;-76
2023/07/27 06:15:34;;;;;;;;;;;;;;;22.14;51.20;100452.69;5052142;28;19921;-75
2023/07/27 06:18:00;;;;;;;;;;;;;;;22.15;51.56;100450.81;5066652;28;19988;-76
2023/07/27 06:20:25;;;;;;;;;;;;;;;22.15;51.21;100450.81;5050922;28;19920;-76
2023/07/27 06:22:50;;;;;;;;;;;;;;;22.14;51.23;100438.31;5053334;28;20378;-74
2023/07/27 06:25:15;;;;;;;;;;;;;;;22.13;51.60;100440.19;5052109;28;19924;-75
2023/07/27 06:27:41;;;;;;;;;;;;;;;22.14;51.41;100432.91;5052251;28;19916;-75
2023/07/27 06:30:08;;;;;;;;;;;;;;;22.14;51.40;100438.31;5053467;28;20517;-75
2023/07/27 06:32:33;;;;;;;;;;;;;;;22.13;51.57;100440.19;5051866;28;19944;-76
2023/07/27 06:34:58;;;;;;;;;;;;;;;22.13;51.24;100425.78;5049299;28;20003;-75
2023/07/27 06:37:24;;;;;;;;;;;;;;;22.13;51.54;100431.19;5086810;28;19912;-74
2023/07/27 06:39:49;;;;;;;;;;;;;;;22.13;51.49;100431.19;5044981;28;19913;-75
2023/07/27 06:42:14;;;;;;;;;;;;;;;22.12;51.59;100421.38;5052527;28;19917;-77
2023/07/27 06:44:39;;;;;;;;;;;;;;;22.12;51.70;100419.53;5051108;28;19919;-76
2023/07/27 06:47:05;;;;;;;;;;;;;;;22.13;51.42;100414.94;5050198;28;19917;-75
2023/07/27 06:49:30;;;;;;;;;;;;;;;22.12;51.54;100411.41;5054087;28;20389;-75
2023/07/27 06:51:55;;;;;;;;;;;;;;;22.11;51.52;100411.59;5051715;28;20013;-77
2023/07/27 06:54:20;;;;;;;;;;;;;;;22.11;51.62;100415.13;5053470;28;20326;-75
2023/07/27 06:56:46;;;;;;;;;;;;;;;22.11;51.73;100415.13;5052416;28;19925;-77
2023/07/27 06:59:11;;;;;;;;;;;;;;;22.10;51.60;100405.34;5052865;28;19935;-76
2023/07/27 07:01:36;;;;;;;;;;;;;;;22.10;51.38;100399.09;5051887;28;20293;-76
2023/07/27 07:04:02;;;;;;;;;;;;;;;22.11;51.55;100408.88;5052352;28;19916;-75
2023/07/27 07:06:28;;;;;;;;;;;;;;;22.10;51.70;100404.53;5048607;28;19959;-75
2023/07/27 07:08:53;;;;;;;;;;;;;;;22.11;51.59;100403.47;5051378;28;19917;-76
2023/07/27 07:11:18;;;;;;;;;;;;;;;22.10;51.75;100397.22;5052594;28;19917;-76
2023/07/27 07:13:43;;;;;;;;;;;;;;;22.10;51.83;100397.22;5047407;28;19920;-76
2023/07/27 07:16:09;;;;;;;;;;;;;;;22.10;51.60;100399.09;5049814;28;19921;-73
2023/07/27 07:18:34;;;;;;;;;;;;;;;22.09;51.66;100398.28;5053489;28;19921;-74
2023/07/27 07:20:59;;;;;;;;;;;;;;;22.11;51.77;100398.06;5055289;28;19921;-72
2023/07/27 07:23:24;;;;;;;;;;;;;;;22.10;51.74;100393.69;5049050;28;19921;-72
2023/07/27 07:25:50;;;;;;;;;;;;;;;22.10;51.55;100390.97;5083495;28;19937;-73
2023/07/27 07:28:15;;;;;;;;;;;;;;;22.11;51.71;100379.09;5083206;28;19943;-73
2023/07/27 07:30:41;;;;;;;;;;;;;;;22.12;51.43;100378.06;5044077;28;19917;-72
2023/07/27 07:33:07;;;;;;;;;;;;;;;22.13;51.36;100379.75;5044838;28;19943;-77
2023/07/27 07:35:38;;;;;;;;;;;;;;;22.12;51.37;100378.94;5044011;28;19963;-72
2023/07/27 07:38:03;;;;;;;;;;;;;;;22.12;51.48;100381.63;5055333;28;19927;-73
2023/07/27 07:40:28;;;;;;;;;;;;;;;22.13;51.38;100377.06;5045195;28;19917;-73
2023/07/27 07:42:54;;;;;;;;;;;;;;;22.13;51.36;100371.63;5051159;28;19981;-73
2023/07/27 07:45:19;;;;;;;;;;;;;;;22.13;51.42;100372.50;5048344;28;20456;-73
2023/07/27 07:47:44;;;;;;;;;;;;;;;22.13;51.33;100372.50;5050121;28;20409;-74
2023/07/27 07:50:10;;;;;;;;;;;;;;;22.13;51.52;100369.78;5050350;28;19951;-72
2023/07/27 07:52:35;;;;;;;;;;;;;;;22.14;51.35;100362.50;5051382;28;19924;-73
2023/07/27 07:55:00;;;;;;;;;;;;;;;22.13;51.51;100364.38;5049023;28;19921;-73
2023/07/27 07:57:25;;;;;;;;;;;;;;;22.13;51.05;100358.97;5049511;28;19921;-73
2023/07/27 07:59:51;;;;;;;;;;;;;;;22.13;51.13;100364.38;5084007;28;19913;-74
2023/07/27 08:02:16;;;;;;;;;;;;;;;22.14;51.08;100348.97;5048003;28;19927;-74
2023/07/27 08:04:41;;;;;;;;;;;;;;;22.14;51.44;100343.53;5050030;28;20000;-74
2023/07/27 08:07:06;;;;;;;;;;;;;;;22.13;51.33;100340.00;5048161;28;19923;-74
2023/07/27 08:09:31;;;;;;;;;;;;;;;22.14;51.42;100332.72;5046965;28;19912;-73
2023/07/27 08:11:57;;;;;;;;;;;;;;;22.13;51.22;100325.59;5048210;28;19916;-73
2023/07/27 08:14:23;;;;;;;;;;;;;;;22.13;51.26;100326.47;5046560;28;19924;-73
2023/07/27 08:16:49;;;;;;;;;;;;;;;22.13;51.44;100326.47;5047983;28;19913;-72
2023/07/27 08:19:14;;;;;;;;;;;;;;;22.13;51.15;100321.06;5047945;28;19928;-78
2023/07/27 08:21:39;;;;;;;;;;;;;;;22.13;51.27;100310.22;5083740;28;20382;-78
2023/07/27 08:24:06;;;;;;;;;;;;;;;22.14;51.32;100316.47;5047631;28;19927;-71
2023/07/27 08:26:31;;;;;;;;;;;;;;;22.13;51.02;100321.06;5051003;28;20378;-74
2023/07/27 08:28:57;;;;;;;;;;;;;;;22.13;51.35;100320.19;5045129;28;19929;-75
2023/07/27 08:31:22;;;;;;;;;;;;;;;22.13;51.30;100312.06;5047292;28;20458;-73
2023/07/27 08:33:47;;;;;;;;;;;;;;;22.13;51.38;100312.06;5076253;28;19917;-75
2023/07/27 08:36:13;;;;;;;;;;;;;;;22.12;51.30;100315.78;5050398;28;19916;-74
2023/07/27 08:38:38;;;;;;;;;;;;;;;22.12;51.39;100319.38;5047488;28;19952;-74
2023/07/27 08:41:03;;;;;;;;;;;;;;;22.11;51.48;100311.41;5045687;28;19967;-74
2023/07/27 08:43:29;;;;;;;;;;;;;;;22.11;51.66;100300.59;5047884;28;19924;-74
2023/07/27 08:45:54;;;;;;;;;;;;;;;22.10;51.42;100307.88;5042988;28;19947;-74
2023/07/27 08:48:19;;;;;;;;;;;;;;;22.11;51.48;100306.00;5047020;28;19921;-73
2023/07/27 08:50:45;;;;;;;;;;;;;;;22.10;51.56;100312.47;5080996;28;19967;-73
2023/07/27 08:53:11;;;;;;;;;;;;;;;22.10;51.42;100307.88;5048319;28;19917;-73
2023/07/27 08:55:37;;;;;;;;;;;;;;;22.10;51.30;100310.59;5045959;28;19944;-73
2023/07/27 08:58:03;;;;;;;;;;;;;;;22.11;51.47;100311.41;5046126;28;19917;-73
2023/07/27 09:00:28;;;;;;;;;;;;;;;22.10;51.82;100316.00;5048543;28;19964;-74
2023/07/27 09:02:53;;;;;;;;;;;;;;;22.10;51.53;100310.59;5046938;28;19917;-72
2023/07/27 09:05:19;;;;;;;;;;;;;;;22.10;51.83;100302.47;5046518;28;19980;-72
2023/07/27 09:07:47;;;;;;;;;;;;;;;22.11;51.74;100306.00;5078890;28;20468;-71
2023/07/27 09:10:12;;;;;;;;;;;;;;;22.11;51.44;100306.00;5045850;28;20285;-72
2023/07/27 09:12:37;;;;;;;;;;;;;;;22.11;51.84;100311.41;5049002;28;19917;-72
2023/07/27 09:15:08;;;;;;;;;;;;;;;22.11;51.66;100306.84;5048545;28;19921;-72
2023/07/27 09:17:33;;;;;;;;;;;;;;;22.11;51.72;100306.84;5049994;28;19924;-72
2023/07/27 09:19:58;;;;;;;;;;;;;;;22.11;51.66;100304.13;5085210;28;19921;-72
2023/07/27 09:22:23;;;;;;;;;;;;;;;22.11;51.93;100301.41;5051779;28;20321;-72
2023/07/27 09:24:48;;;;;;;;;;;;;;;22.10;51.68;100305.19;5050731;28;19917;-72
2023/07/27 09:27:14;;;;;;;;;;;;;;;22.10;52.12;100293.50;5053206;28;19928;-71
2023/07/27 09:29:40;;;;;;;;;;;;;;;22.11;51.74;100290.59;5046506;28;19928;-72
2023/07/27 09:32:08;;;;;;;;;;;;;;;22.11;51.93;100284.34;5050847;28;19928;-71
2023/07/27 09:34:33;;;;;;;;;;;;;;;22.11;52.09;100279.75;5050633;28;19928;-73
2023/07/27 09:37:02;;;;;;;;;;;;;;;22.12;51.70;100291.44;5050629;28;19912;-72
2023/07/27 09:39:28;;;;;;;;;;;;;;;22.11;51.73;100277.06;5052808;28;20008;-72
2023/07/27 09:41:53;;;;;;;;;;;;;;;22.12;52.02;100286.88;5085715;28;19917;-72
2023/07/27 09:44:20;;;;;;;;;;;;;;;22.11;52.13;100281.63;5067081;28;19913;-71
2023/07/27 09:46:45;;;;;;;;;;;;;;;22.11;51.92;100284.34;5051050;28;19912;-72
2023/07/27 09:49:14;;;;;;;;;;;;;;;22.11;52.00;100290.59;5069529;28;19917;-72
2023/07/27 09:51:40;;;;;;;;;;;;;;;22.11;52.11;100293.31;5033760;28;19913;-72
2023/07/27 09:54:05;;;;;;;;;;;;;;;22.10;52.18;100288.94;5048919;28;19948;-71
2023/07/27 09:56:31;;;;;;;;;;;;;;;22.09;52.13;100276.44;5082493;28;19921;-72
2023/07/27 09:58:56;;;;;;;;;;;;;;;22.10;52.28;100269.97;5065871;28;19928;-72
2023/07/27 10:01:21;;;;;;;;;;;;;;;22.09;52.10;100273.72;5044496;28;19917;-74
2023/07/27 10:03:46;;;;;;;;;;;;;;;22.11;52.17;100277.06;5049536;28;19925;-79
2023/07/27 10:06:13;;;;;;;;;;;;;;;22.10;52.07;100272.69;5053113;28;19924;-76
2023/07/27 10:08:39;;;;;;;;;;;;;;;22.11;52.06;100274.34;5052838;28;19921;-76
2023/07/27 10:11:04;;;;;;;;;;;;;;;22.12;52.36;100272.47;5053951;28;20004;-75
2023/07/27 10:13:29;;;;;;;;;;;;;;;22.11;52.36;100271.63;5051413;28;20012;-77
2023/07/27 10:15:55;;;;;;;;;;;;;;;22.12;52.59;100277.88;5049695;28;19940;-78
2023/07/27 10:18:22;;;;;;;;;;;;;;;22.12;52.56;100272.47;5084045;28;20457;-75
2023/07/27 10:20:47;;;;;;;;;;;;;;;22.12;52.81;100272.47;5051168;28;19921;-75
2023/07/27 10:23:18;;;;;;;;;;;;;;;22.12;52.66;100273.34;5046303;28;19924;-71
2023/07/27 10:25:52;;;;;;;;;;;;;;;22.12;52.84;100269.75;5047081;28;19948;-71
2023/07/27 10:28:28;;;;;;;;;;;;;;;22.11;52.89;100271.63;5048462;28;19920;-72
2023/07/27 10:31:13;;;;;;;;;;;;;;;22.12;52.80;100275.19;5045520;28;19916;-71
2023/07/27 10:33:39;;;;;;;;;;;;;;;22.12;52.94;100273.34;5050276;28;19939;-72
2023/07/27 10:36:04;;;;;;;;;;;;;;;22.12;52.67;100267.06;5047065;28;19932;-72
2023/07/27 10:38:33;;;;;;;;;;;;;;;22.11;52.60;100268.94;5049150;28;19924;-72
2023/07/27 10:41:14;;;;;;;;;;;;;;;22.10;52.83;100264.56;5051452;28;20011;-72
2023/07/27 10:43:58;;;;;;;;;;;;;;;22.10;52.92;100272.69;5048619;28;19917;-72
2023/07/27 10:46:23;;;;;;;;;;;;;;;22.10;52.67;100269.16;5054050;28;19920;-71
2023/07/27 10:49:00;;;;;;;;;;;;;;;22.09;52.61;100273.72;5049909;28;19959;-71
2023/07/27 10:51:25;;;;;;;;;;;;;;;22.10;52.87;100275.41;5076484;28;19921;-72
2023/07/27 10:53:51;;;;;;;;;;;;;;;22.11;53.08;100278.94;5049523;28;19917;-72
2023/07/27 10:56:16;;;;;;;;;;;;;;;22.09;53.09;100278.28;5047852;28;19925;-72
2023/07/27 10:58:41;;;;;;;;;;;;;;;22.11;52.76;100273.53;5080841;28;19975;-71
2023/07/27 11:01:06;;;;;;;;;;;;;;;22.10;52.82;100275.41;5035220;28;19921;-71
2023/07/27 11:03:31;;;;;;;;;;;;;;;22.10;53.20;100269.97;5077848;28;20297;-71
2023/07/27 11:06:01;;;;;;;;;;;;;;;21.26;53.02;100134.22;5047851;28;19924;-71
2023/07/27 11:08:27;;;;;;;;;;;;;;;22.11;53.02;100278.94;5079620;28;19924;-71
2023/07/27 11:10:52;;;;;;;;;;;;;;;22.11;53.04;100278.94;5050288;28;19923;-71
2023/07/27 11:13:21;;;;;;;;;;;;;;;22.10;53.09;100269.97;5048653;28;19956;-72
2023/07/27 11:15:47;;;;;;;;;;;;;;;22.11;53.29;100268.09;5048112;28;19929;-71
2023/07/27 11:18:12;;;;;;;;;;;;;;;22.13;53.04;100274.16;5049757;28;19924;-71
2023/07/27 11:20:37;;;;;;;;;;;;;;;22.12;53.18;100267.91;5047330;28;19940;-72
2023/07/27 11:23:02;;;;;;;;;;;;;;;22.12;53.26;100259.78;5076951;28;20413;-72
2023/07/27 11:25:32;;;;;;;;;;;;;;;22.13;53.09;100260.63;5045282;28;19920;-71
2023/07/27 11:27:57;;;;;;;;;;;;;;;22.13;53.36;100263.34;5060758;28;20003;-70
2023/07/27 11:30:22;;;;;;;;;;;;;;;22.13;53.41;100258.78;5045539;28;19913;-71
2023/07/27 11:33:00;;;;;;;;;;;;;;;22.12;53.26;100253.53;5031252;28;19940;-72
2023/07/27 11:35:26;;;;;;;;;;;;;;;22.13;53.55;100250.66;5049892;28;19956;-71
2023/07/27 11:37:51;;;;;;;;;;;;;;;22.14;53.18;100252.31;5046047;28;19958;-71
2023/07/27 11:40:20;;;;;;;;;;;;;;;22.14;53.44;100254.19;5049516;28;19921;-71
2023/07/27 11:42:45;;;;;;;;;;;;;;;22.14;53.36;100257.75;5076863;28;19924;-71
2023/07/27 11:45:10;;;;;;;;;;;;;;;22.14;53.56;100248.78;5075681;28;19917;-71
2023/07/27 11:47:38;;;;;;;;;;;;;;;22.15;53.61;100245.84;5062660;28;19921;-71
2023/07/27 11:50:06;;;;;;;;;;;;;;;22.15;53.36;100242.31;5047616;28;19913;-72
2023/07/27 11:52:31;;;;;;;;;;;;;;;22.15;53.29;100242.31;5046709;28;19917;-73
2023/07/27 11:54:56;;;;;;;;;;;;;;;22.16;53.48;100238.56;5046380;28;19975;-71
2023/07/27 11:57:27;;;;;;;;;;;;;;;22.16;53.54;100243.97;5044928;28;19917;-70
2023/07/27 12:00:19;;;;;;;;;;;;;;;22.16;53.54;100247.50;5079609;28;19917;-73
2023/07/27 12:02:45;;;;;;;;;;;;;;;22.17;53.48;100238.38;5045750;28;19921;-71
2023/07/27 12:05:14;;;;;;;;;;;;;;;22.18;53.53;100241.91;5044147;28;19921;-71
2023/07/27 12:07:39;;;;;;;;;;;;;;;22.18;53.47;100247.34;5046186;28;19921;-71
2023/07/27 12:10:04;;;;;;;;;;;;;;;22.19;53.68;100244.41;5047705;28;19913;-70
2023/07/27 12:12:30;;;;;;;;;;;;;;;22.19;53.69;100240.88;5047968;28;19962;-71
2023/07/27 12:14:58;;;;;;;;;;;;;;;22.19;53.78;100244.41;5046938;28;19921;-76
2023/07/27 12:17:23;;;;;;;;;;;;;;;22.20;53.43;100239.81;5051455;28;19990;-75
2023/07/27 12:19:48;;;;;;;;;;;;;;;22.19;53.63;100239.00;5047243;28;20457;-77
2023/07/27 12:22:14;;;;;;;;;;;;;;;22.20;53.59;100243.34;5079579;28;20395;-70
2023/07/27 12:24:43;;;;;;;;;;;;;;;22.20;53.71;100237.94;5045093;28;20076;-71
2023/07/27 12:27:08;;;;;;;;;;;;;;;22.21;53.78;100241.47;5083076;28;19956;-71
2023/07/27 12:29:34;;;;;;;;;;;;;;;22.21;53.81;100231.47;5049913;28;20443;-71